Time;durP1;ratioP1;P1;durP2;ratioP2;P2;SDS_P1;SDS_P2;PMS_P1;PMS_P2;Temp;Humidity;BMP_temperature;BMP_pressure;BME280_temperature;BME280_humidity;BME280_pressure;Samples;Min_cycle;Max_cycle;Signal;HPM_P1;HPM_P2
2022/07/19 00:00:07;;;;;;;6.20;3.20;;;;;;;;;;5055715;28;20199;-74
2022/07/19 00:02:36;;;;;;;6.87;3.20;;;;;;;;;;5047041;28;20207;-74
2022/07/19 00:05:04;;;;;;;3.80;2.87;;;;;;;;;;5057014;28;20345;-74
2022/07/19 00:07:34;;;;;;;5.70;3.37;;;;;;;;;;5056553;28;20300;-74
2022/07/19 00:10:03;;;;;;;6.47;3.07;;;;;;;;;;5067907;28;20222;-73
2022/07/19 00:12:31;;;;;;;4.70;2.90;;;;;;;;;;5062032;28;20681;-74
2022/07/19 00:14:59;;;;;;;4.73;3.10;;;;;;;;;;5057511;28;20708;-74
2022/07/19 00:17:29;;;;;;;5.77;3.00;;;;;;;;;;5064670;28;20313;-73
2022/07/19 00:19:57;;;;;;;7.43;3.53;;;;;;;;;;5066698;28;20249;-73
2022/07/19 00:22:25;;;;;;;5.53;2.90;;;;;;;;;;5072751;28;20206;-74
2022/07/19 00:24:55;;;;;;;5.50;3.20;;;;;;;;;;5068255;28;20218;-74
2022/07/19 00:27:24;;;;;;;4.13;3.20;;;;;;;;;;5061701;28;20226;-74
2022/07/19 00:29:52;;;;;;;6.37;2.93;;;;;;;;;;5055244;28;20761;-73
2022/07/19 00:32:20;;;;;;;7.10;3.00;;;;;;;;;;5070802;28;20203;-73
2022/07/19 00:34:49;;;;;;;4.17;2.67;;;;;;;;;;5067538;28;20203;-74
2022/07/19 00:37:17;;;;;;;3.50;3.03;;;;;;;;;;5053045;28;20699;-74
2022/07/19 00:39:46;;;;;;;3.27;2.80;;;;;;;;;;5056300;28;20675;-74
2022/07/19 00:42:15;;;;;;;5.30;2.80;;;;;;;;;;5054611;28;20249;-74
2022/07/19 00:44:44;;;;;;;4.67;2.97;;;;;;;;;;5055000;28;20214;-73
2022/07/19 00:47:13;;;;;;;5.13;3.07;;;;;;;;;;5061547;28;20235;-74
2022/07/19 00:49:41;;;;;;;3.53;2.83;;;;;;;;;;5054414;28;20261;-74
2022/07/19 00:52:11;;;;;;;3.83;2.90;;;;;;;;;;5062993;28;20206;-74
2022/07/19 00:54:41;;;;;;;4.57;2.83;;;;;;;;;;5068448;28;20199;-74
2022/07/19 00:57:10;;;;;;;5.03;3.20;;;;;;;;;;5055869;28;20225;-74
2022/07/19 00:59:40;;;;;;;6.53;3.27;;;;;;;;;;5057288;28;20195;-74
2022/07/19 01:02:08;;;;;;;5.37;3.13;;;;;;;;;;5059834;28;20223;-73
2022/07/19 01:04:37;;;;;;;5.27;2.80;;;;;;;;;;5057154;28;20206;-74
2022/07/19 01:07:06;;;;;;;4.83;3.30;;;;;;;;;;5065303;28;20322;-73
2022/07/19 01:09:35;;;;;;;4.50;3.10;;;;;;;;;;5055520;28;20199;-74
2022/07/19 01:12:05;;;;;;;5.23;3.00;;;;;;;;;;5056322;28;20719;-74
2022/07/19 01:14:35;;;;;;;4.70;2.80;;;;;;;;;;5053199;28;20522;-74
2022/07/19 01:17:05;;;;;;;5.17;2.93;;;;;;;;;;5055244;28;20273;-73
2022/07/19 01:19:34;;;;;;;4.77;3.20;;;;;;;;;;5053690;28;20199;-74
2022/07/19 01:22:04;;;;;;;5.77;3.00;;;;;;;;;;5057721;28;20207;-74
2022/07/19 01:24:32;;;;;;;6.20;3.30;;;;;;;;;;5056390;28;20623;-74
2022/07/19 01:27:05;;;;;;;4.93;3.23;;;;;;;;;;5065528;28;20222;-74
2022/07/19 01:29:35;;;;;;;4.90;3.17;;;;;;;;;;5073543;28;20198;-74
2022/07/19 01:32:04;;;;;;;7.00;3.40;;;;;;;;;;5074481;28;20670;-74
2022/07/19 01:34:32;;;;;;;5.40;3.50;;;;;;;;;;5072725;28;20667;-74
2022/07/19 01:37:01;;;;;;;6.90;3.40;;;;;;;;;;5050658;28;20226;-74
2022/07/19 01:39:31;;;;;;;6.00;3.17;;;;;;;;;;5073630;28;20199;-74
2022/07/19 01:41:59;;;;;;;5.33;3.10;;;;;;;;;;5060846;28;20211;-74
2022/07/19 01:44:27;;;;;;;7.50;3.10;;;;;;;;;;5056090;28;20214;-74
2022/07/19 01:46:56;;;;;;;3.40;3.10;;;;;;;;;;5056009;28;20227;-74
2022/07/19 01:49:24;;;;;;;4.17;3.10;;;;;;;;;;5057150;28;20196;-74
2022/07/19 01:51:53;;;;;;;4.93;3.30;;;;;;;;;;5066812;28;20210;-74
2022/07/19 01:54:21;;;;;;;4.00;3.47;;;;;;;;;;5064702;28;20705;-74
2022/07/19 01:56:51;;;;;;;4.37;3.67;;;;;;;;;;5061503;28;20230;-74
2022/07/19 01:59:19;;;;;;;3.43;3.13;;;;;;;;;;5074780;28;20206;-74
2022/07/19 02:01:48;;;;;;;5.47;3.37;;;;;;;;;;5067237;28;20218;-74
2022/07/19 02:04:16;;;;;;;4.20;3.30;;;;;;;;;;5074204;28;20263;-74
2022/07/19 02:06:47;;;;;;;4.07;3.00;;;;;;;;;;5067064;28;20226;-74
2022/07/19 02:09:15;;;;;;;3.50;2.97;;;;;;;;;;5056427;28;20214;-74
2022/07/19 02:11:44;;;;;;;3.50;3.20;;;;;;;;;;5064969;28;20217;-74
2022/07/19 02:14:13;;;;;;;4.07;3.20;;;;;;;;;;5074789;28;20281;-73
2022/07/19 02:16:42;;;;;;;4.13;3.20;;;;;;;;;;5064432;28;20226;-74
2022/07/19 02:19:11;;;;;;;5.40;3.57;;;;;;;;;;5055655;28;20302;-74
2022/07/19 02:21:40;;;;;;;7.40;3.57;;;;;;;;;;5060589;28;20211;-74
2022/07/19 02:24:09;;;;;;;4.57;3.20;;;;;;;;;;5056196;28;20671;-74
2022/07/19 02:26:38;;;;;;;5.43;3.70;;;;;;;;;;5059189;28;20230;-73
2022/07/19 02:29:06;;;;;;;5.00;3.47;;;;;;;;;;5075413;28;20631;-73
2022/07/19 02:31:36;;;;;;;4.97;3.53;;;;;;;;;;5060961;28;20207;-74
2022/07/19 02:34:05;;;;;;;4.00;3.30;;;;;;;;;;5055199;28;20203;-74
2022/07/19 02:36:34;;;;;;;4.33;3.40;;;;;;;;;;5053057;28;20226;-74
2022/07/19 02:39:02;;;;;;;5.27;3.57;;;;;;;;;;5055867;28;20260;-74
2022/07/19 02:41:31;;;;;;;5.43;3.57;;;;;;;;;;5064138;28;20230;-74
2022/07/19 02:44:00;;;;;;;5.77;2.97;;;;;;;;;;5075412;28;20236;-74
2022/07/19 02:46:29;;;;;;;6.53;3.50;;;;;;;;;;5058492;28;20223;-74
2022/07/19 02:48:58;;;;;;;5.33;3.20;;;;;;;;;;5054356;28;20203;-74
2022/07/19 02:51:27;;;;;;;5.63;3.23;;;;;;;;;;5059896;28;20203;-74
2022/07/19 02:53:55;;;;;;;7.37;3.60;;;;;;;;;;5051234;28;20206;-74
2022/07/19 02:56:24;;;;;;;5.63;3.30;;;;;;;;;;5070157;28;20221;-74
2022/07/19 02:58:52;;;;;;;5.03;3.30;;;;;;;;;;5055446;28;20276;-74
2022/07/19 03:01:20;;;;;;;6.17;3.20;;;;;;;;;;5062879;28;20214;-74
2022/07/19 03:03:50;;;;;;;4.17;3.40;;;;;;;;;;5058159;28;20207;-74
2022/07/19 03:06:20;;;;;;;6.90;3.40;;;;;;;;;;5063784;28;20691;-74
2022/07/19 03:08:48;;;;;;;4.57;3.03;;;;;;;;;;5075299;28;20238;-74
2022/07/19 03:11:17;;;;;;;4.87;3.40;;;;;;;;;;5060589;28;20276;-74
2022/07/19 03:13:45;;;;;;;5.40;3.70;;;;;;;;;;5055271;28;20206;-74
2022/07/19 03:16:14;;;;;;;3.50;3.20;;;;;;;;;;5058958;28;20230;-74
2022/07/19 03:18:42;;;;;;;4.03;3.63;;;;;;;;;;5053012;28;20207;-74
2022/07/19 03:21:11;;;;;;;4.00;3.63;;;;;;;;;;5064343;28;20202;-74
2022/07/19 03:23:41;;;;;;;4.87;3.47;;;;;;;;;;5075237;28;20206;-74
2022/07/19 03:26:09;;;;;;;5.70;3.80;;;;;;;;;;5070405;28;20222;-74
2022/07/19 03:28:38;;;;;;;5.90;3.50;;;;;;;;;;5035334;28;20218;-74
2022/07/19 03:31:07;;;;;;;5.93;3.70;;;;;;;;;;5050765;28;20203;-74
2022/07/19 03:33:35;;;;;;;5.50;3.70;;;;;;;;;;5034819;28;20208;-74
2022/07/19 03:36:05;;;;;;;6.73;3.90;;;;;;;;;;5053715;28;20620;-74
2022/07/19 03:38:33;;;;;;;4.90;3.90;;;;;;;;;;5054929;28;20261;-74
2022/07/19 03:41:03;;;;;;;6.73;4.17;;;;;;;;;;5067354;28;20202;-74
2022/07/19 03:43:31;;;;;;;5.33;3.90;;;;;;;;;;5072334;28;20205;-74
2022/07/19 03:46:00;;;;;;;4.63;4.10;;;;;;;;;;5052504;28;20230;-74
2022/07/19 03:48:28;;;;;;;5.83;4.00;;;;;;;;;;5054267;28;20237;-74
2022/07/19 03:50:56;;;;;;;5.10;4.27;;;;;;;;;;5059883;28;20207;-74
2022/07/19 03:53:25;;;;;;;5.37;3.93;;;;;;;;;;5053995;28;20253;-74
2022/07/19 03:55:53;;;;;;;6.07;3.33;;;;;;;;;;5056200;28;20219;-74
2022/07/19 03:58:23;;;;;;;5.13;3.80;;;;;;;;;;5053781;28;20649;-74
2022/07/19 04:00:51;;;;;;;9.03;3.60;;;;;;;;;;5057920;28;20269;-74
2022/07/19 04:03:20;;;;;;;4.83;3.80;;;;;;;;;;5053991;28;20206;-74
2022/07/19 04:05:48;;;;;;;6.47;3.57;;;;;;;;;;5060371;28;20301;-74
2022/07/19 04:08:17;;;;;;;4.97;3.60;;;;;;;;;;5056335;28;20227;-74
2022/07/19 04:10:45;;;;;;;5.03;3.70;;;;;;;;;;5050984;28;20204;-74
2022/07/19 04:13:14;;;;;;;5.10;3.80;;;;;;;;;;5053080;28;20552;-74
2022/07/19 04:15:44;;;;;;;5.60;3.93;;;;;;;;;;5048536;28;20207;-74
2022/07/19 04:18:14;;;;;;;5.53;3.97;;;;;;;;;;5069502;28;20285;-74
2022/07/19 04:20:42;;;;;;;5.97;3.90;;;;;;;;;;5062793;28;20705;-74
2022/07/19 04:23:11;;;;;;;5.77;4.03;;;;;;;;;;5052865;28;20199;-74
2022/07/19 04:25:39;;;;;;;4.60;3.97;;;;;;;;;;5059660;28;20301;-74
2022/07/19 04:28:08;;;;;;;5.23;4.03;;;;;;;;;;5051775;28;20219;-74
2022/07/19 04:30:36;;;;;;;7.53;3.70;;;;;;;;;;5046244;28;20577;-74
2022/07/19 04:33:06;;;;;;;5.50;3.90;;;;;;;;;;5051497;28;20203;-74
2022/07/19 04:35:34;;;;;;;4.53;3.43;;;;;;;;;;5056928;28;20202;-74
2022/07/19 04:38:03;;;;;;;5.93;3.70;;;;;;;;;;5054113;28;20230;-74
2022/07/19 04:40:31;;;;;;;5.80;4.10;;;;;;;;;;5048506;28;20708;-74
2022/07/19 04:43:00;;;;;;;4.80;4.00;;;;;;;;;;5055106;28;20636;-74
2022/07/19 04:45:28;;;;;;;4.33;3.93;;;;;;;;;;5060108;28;20202;-74
2022/07/19 04:47:57;;;;;;;6.27;3.90;;;;;;;;;;5058004;28;20229;-74
2022/07/19 04:50:27;;;;;;;7.83;4.07;;;;;;;;;;5051606;28;20207;-74
2022/07/19 04:52:55;;;;;;;8.27;4.33;;;;;;;;;;5066843;28;20206;-74
2022/07/19 04:55:23;;;;;;;8.50;4.20;;;;;;;;;;5051086;28;20624;-74
2022/07/19 04:57:52;;;;;;;6.63;4.20;;;;;;;;;;5053435;28;20199;-74
2022/07/19 05:00:20;;;;;;;6.93;4.13;;;;;;;;;;5053557;28;20218;-74
2022/07/19 05:02:49;;;;;;;8.17;4.30;;;;;;;;;;5071854;28;20210;-74
2022/07/19 05:05:18;;;;;;;5.27;4.20;;;;;;;;;;5061137;28;20232;-74
2022/07/19 05:07:47;;;;;;;5.50;4.20;;;;;;;;;;5051317;28;20223;-74
2022/07/19 05:10:16;;;;;;;5.10;3.87;;;;;;;;;;5057527;28;20198;-74
2022/07/19 05:12:45;;;;;;;4.57;4.17;;;;;;;;;;5066093;28;20214;-74
2022/07/19 05:15:13;;;;;;;6.53;4.20;;;;;;;;;;5063324;28;20210;-74
2022/07/19 05:17:43;;;;;;;8.07;4.27;;;;;;;;;;5050719;28;20326;-74
2022/07/19 05:20:15;;;;;;;5.60;4.50;;;;;;;;;;5053604;28;20199;-74
2022/07/19 05:22:43;;;;;;;6.27;4.10;;;;;;;;;;5065027;28;20210;-74
2022/07/19 05:25:17;;;;;;;5.53;3.93;;;;;;;;;;5059054;28;20604;-74
2022/07/19 05:27:45;;;;;;;7.73;4.20;;;;;;;;;;5059479;28;20231;-74
2022/07/19 05:30:14;;;;;;;4.23;3.83;;;;;;;;;;5055816;28;20250;-74
2022/07/19 05:32:42;;;;;;;7.47;4.53;;;;;;;;;;5070108;28;20210;-74
2022/07/19 05:35:11;;;;;;;5.93;4.13;;;;;;;;;;5060116;28;20199;-74
2022/07/19 05:37:39;;;;;;;5.47;3.63;;;;;;;;;;5064889;28;20268;-74
2022/07/19 05:40:08;;;;;;;6.30;4.17;;;;;;;;;;5065932;28;20199;-74
2022/07/19 05:42:38;;;;;;;4.67;3.87;;;;;;;;;;5060339;28;20203;-73
2022/07/19 05:45:07;;;;;;;5.63;3.43;;;;;;;;;;5057734;28;20210;-74
2022/07/19 05:47:36;;;;;;;6.27;3.60;;;;;;;;;;5055918;28;20235;-74
2022/07/19 05:50:05;;;;;;;5.13;3.60;;;;;;;;;;5059860;28;20198;-74
2022/07/19 05:52:34;;;;;;;3.50;3.20;;;;;;;;;;5037507;28;20199;-74
2022/07/19 05:55:05;;;;;;;3.50;3.20;;;;;;;;;;5057557;28;20723;-74
2022/07/19 05:57:34;;;;;;;4.28;3.30;;;;;;;;;;5060714;28;20638;-74
2022/07/19 06:00:05;;;;;;;6.22;3.38;;;;;;;;;;5057120;28;20259;-74
2022/07/19 06:02:33;;;;;;;3.60;3.30;;;;;;;;;;5048641;28;20233;-74
2022/07/19 06:05:02;;;;;;;4.93;3.45;;;;;;;;;;5055586;28;20199;-74
2022/07/19 06:07:31;;;;;;;5.25;3.45;;;;;;;;;;5061136;28;20617;-74
2022/07/19 06:10:01;;;;;;;3.67;3.13;;;;;;;;;;5060157;28;20203;-74
2022/07/19 06:12:30;;;;;;;4.45;3.05;;;;;;;;;;5055742;28;20206;-74
2022/07/19 06:14:58;;;;;;;4.53;2.72;;;;;;;;;;5060052;28;20198;-73
2022/07/19 06:17:28;;;;;;;3.65;3.17;;;;;;;;;;5056175;28;20223;-73
2022/07/19 06:19:57;;;;;;;3.35;3.05;;;;;;;;;;5058462;28;20645;-73
2022/07/19 06:22:25;;;;;;;7.78;3.25;;;;;;;;;;5063984;28;20210;-73
2022/07/19 06:24:54;;;;;;;4.30;2.90;;;;;;;;;;5058826;28;20702;-73
2022/07/19 06:27:22;;;;;;;6.70;3.38;;;;;;;;;;5066762;28;20737;-73
2022/07/19 06:29:51;;;;;;;4.25;3.22;;;;;;;;;;5069575;28;20206;-73
2022/07/19 06:32:19;;;;;;;4.35;3.17;;;;;;;;;;5070351;28;20279;-73
2022/07/19 06:34:49;;;;;;;5.45;2.50;;;;;;;;;;5044203;28;20244;-73
2022/07/19 06:37:17;;;;;;;7.40;3.17;;;;;;;;;;5066549;28;20234;-73
2022/07/19 06:39:45;;;;;;;4.28;3.00;;;;;;;;;;5071828;28;20195;-73
2022/07/19 06:42:14;;;;;;;5.68;2.78;;;;;;;;;;5057918;28;20199;-73
2022/07/19 06:44:42;;;;;;;3.90;2.50;;;;;;;;;;5058280;28;20198;-73
2022/07/19 06:47:11;;;;;;;4.93;2.92;;;;;;;;;;5064015;28;20235;-73
2022/07/19 06:49:39;;;;;;;4.93;2.80;;;;;;;;;;5055623;28;20227;-73
2022/07/19 06:52:09;;;;;;;4.63;3.10;;;;;;;;;;5066497;28;20229;-73
2022/07/19 06:54:42;;;;;;;5.70;2.60;;;;;;;;;;5071515;28;20242;-73
2022/07/19 06:57:10;;;;;;;6.47;2.80;;;;;;;;;;5057403;28;20223;-73
2022/07/19 06:59:39;;;;;;;3.63;2.80;;;;;;;;;;5056868;28;20644;-73
2022/07/19 07:02:07;;;;;;;4.90;2.92;;;;;;;;;;5066262;28;20222;-73
2022/07/19 07:04:36;;;;;;;4.07;3.00;;;;;;;;;;5070439;28;20195;-73
2022/07/19 07:07:14;;;;;;;4.10;2.40;;;;;;;;;;5066023;28;20245;-73
2022/07/19 07:09:43;;;;;;;6.25;2.70;;;;;;;;;;5060256;28;20215;-73
2022/07/19 07:12:11;;;;;;;3.83;2.75;;;;;;;;;;5066035;28;20211;-73
2022/07/19 07:14:40;;;;;;;4.75;2.72;;;;;;;;;;5071073;28;20714;-73
2022/07/19 07:17:09;;;;;;;4.47;2.55;;;;;;;;;;5064035;28;20225;-73
2022/07/19 07:19:37;;;;;;;4.82;2.60;;;;;;;;;;5069930;28;20199;-73
2022/07/19 07:22:06;;;;;;;4.72;2.92;;;;;;;;;;5060333;28;20207;-73
2022/07/19 07:24:36;;;;;;;4.35;2.63;;;;;;;;;;5052197;28;20561;-73
2022/07/19 07:27:04;;;;;;;3.10;2.80;;;;;;;;;;5057621;28;20233;-73
2022/07/19 07:29:33;;;;;;;7.15;3.00;;;;;;;;;;5073373;28;20218;-73
2022/07/19 07:32:01;;;;;;;4.18;2.60;;;;;;;;;;5064391;28;20336;-73
2022/07/19 07:34:30;;;;;;;5.13;2.83;;;;;;;;;;5071956;28;20584;-73
2022/07/19 07:37:03;;;;;;;4.13;2.40;;;;;;;;;;5050333;28;20695;-73
2022/07/19 07:39:32;;;;;;;3.42;2.40;;;;;;;;;;5056134;28;20207;-73
2022/07/19 07:42:03;;;;;;;6.70;2.60;;;;;;;;;;5059547;28;20214;-73
2022/07/19 07:44:39;;;;;;;5.35;2.53;;;;;;;;;;5055847;28;20231;-73
2022/07/19 07:47:09;;;;;;;2.97;2.50;;;;;;;;;;5064283;28;20222;-73
2022/07/19 07:49:38;;;;;;;4.40;2.50;;;;;;;;;;5056879;28;20223;-73
2022/07/19 07:52:07;;;;;;;3.72;2.10;;;;;;;;;;5054176;28;20670;-73
2022/07/19 07:54:36;;;;;;;4.18;2.47;;;;;;;;;;5054592;28;20591;-74
2022/07/19 07:57:22;;;;;;;2.33;2.13;;;;;;;;;;5055071;28;20595;-73
2022/07/19 07:59:50;;;;;;;3.35;2.13;;;;;;;;;;5059131;28;20195;-73
2022/07/19 08:02:18;;;;;;;4.57;2.78;;;;;;;;;;5064926;28;20218;-73
2022/07/19 08:04:48;;;;;;;3.85;2.30;;;;;;;;;;5070554;28;20234;-74
2022/07/19 08:07:16;;;;;;;3.70;2.50;;;;;;;;;;5054103;28;20227;-73
2022/07/19 08:09:44;;;;;;;4.13;2.35;;;;;;;;;;5055936;28;20223;-74
2022/07/19 08:12:13;;;;;;;2.85;2.35;;;;;;;;;;5054604;28;20207;-73
2022/07/19 08:14:43;;;;;;;4.03;2.10;;;;;;;;;;5056168;28;20553;-73
2022/07/19 08:17:11;;;;;;;2.63;2.42;;;;;;;;;;5062173;28;20280;-74
2022/07/19 08:19:40;;;;;;;3.63;2.30;;;;;;;;;;5055939;28;20289;-73
2022/07/19 08:22:08;;;;;;;5.70;2.40;;;;;;;;;;5063950;28;20259;-73
2022/07/19 08:24:37;;;;;;;3.83;2.30;;;;;;;;;;5070887;28;20556;-73
2022/07/19 08:27:05;;;;;;;3.85;2.60;;;;;;;;;;5060954;28;20280;-73
2022/07/19 08:29:34;;;;;;;4.55;2.40;;;;;;;;;;5070422;28;20214;-73
2022/07/19 08:32:04;;;;;;;3.38;2.10;;;;;;;;;;5057554;28;20280;-73
2022/07/19 08:34:33;;;;;;;3.33;2.08;;;;;;;;;;5070126;28;20245;-73
2022/07/19 08:37:03;;;;;;;5.20;2.20;;;;;;;;;;5064268;28;20230;-74
2022/07/19 08:39:31;;;;;;;6.20;2.42;;;;;;;;;;5067967;28;20226;-73
2022/07/19 08:42:00;;;;;;;3.70;2.10;;;;;;;;;;5056593;28;20207;-73
2022/07/19 08:44:28;;;;;;;4.13;2.33;;;;;;;;;;5054693;28;20217;-73
2022/07/19 08:46:57;;;;;;;2.65;2.00;;;;;;;;;;5062513;28;20226;-73
2022/07/19 08:49:28;;;;;;;3.53;2.17;;;;;;;;;;5054355;28;20226;-73
2022/07/19 08:51:56;;;;;;;3.33;2.30;;;;;;;;;;5063145;28;20218;-73
2022/07/19 08:54:25;;;;;;;3.03;2.10;;;;;;;;;;5053010;28;20210;-74
2022/07/19 08:59:47;;;;;;;3.30;2.25;;;;;;;;;;5055069;28;20261;-73
2022/07/19 09:02:16;;;;;;;4.65;2.15;;;;;;;;;;5064392;28;20660;-73
2022/07/19 09:05:00;;;;;;;4.40;2.35;;;;;;;;;;5069438;28;20244;-73
2022/07/19 09:07:28;;;;;;;3.45;2.10;;;;;;;;;;5055188;28;20219;-73
2022/07/19 09:10:11;;;;;;;6.07;2.42;;;;;;;;;;5051789;28;20224;-74
2022/07/19 09:12:58;;;;;;;3.78;2.30;;;;;;;;;;5057573;28;20681;-73
2022/07/19 09:15:37;;;;;;;2.92;2.10;;;;;;;;;;5066159;28;20207;-74
2022/07/19 09:18:09;;;;;;;4.65;1.95;;;;;;;;;;5057093;28;20203;-73
2022/07/19 09:20:39;;;;;;;2.42;2.22;;;;;;;;;;5058176;28;20261;-73
2022/07/19 09:23:08;;;;;;;2.40;2.10;;;;;;;;;;5068694;28;20202;-73
2022/07/19 09:25:37;;;;;;;7.18;2.30;;;;;;;;;;5051748;28;20204;-73
2022/07/19 09:28:06;;;;;;;4.50;2.50;;;;;;;;;;5056177;28;20210;-74
2022/07/19 09:30:37;;;;;;;4.10;2.20;;;;;;;;;;5058334;28;20234;-73
2022/07/19 09:33:15;;;;;;;2.90;1.80;;;;;;;;;;5034802;28;20211;-74
2022/07/19 09:35:46;;;;;;;4.38;2.20;;;;;;;;;;5051984;28;20667;-73
2022/07/19 09:38:19;;;;;;;2.50;2.00;;;;;;;;;;5066399;28;20207;-73
2022/07/19 09:40:48;;;;;;;3.40;2.30;;;;;;;;;;5058984;28;20199;-73
2022/07/19 09:43:16;;;;;;;4.25;2.25;;;;;;;;;;5056322;28;20207;-73
2022/07/19 09:46:05;;;;;;;2.05;1.85;;;;;;;;;;5061597;28;20227;-73
2022/07/19 09:48:44;;;;;;;3.22;2.10;;;;;;;;;;5070473;28;20642;-74
2022/07/19 09:51:15;;;;;;;2.95;2.00;;;;;;;;;;5059975;28;20246;-73
2022/07/19 09:53:43;;;;;;;2.00;1.80;;;;;;;;;;5060539;28;20214;-73
2022/07/19 09:56:12;;;;;;;3.15;1.95;;;;;;;;;;5061575;28;20696;-74
2022/07/19 09:58:41;;;;;;;5.07;2.03;;;;;;;;;;5072168;28;20210;-73
2022/07/19 10:01:10;;;;;;;2.78;2.20;;;;;;;;;;5059647;28;20199;-73
2022/07/19 10:03:38;;;;;;;4.57;2.00;;;;;;;;;;5036280;28;20206;-73
2022/07/19 10:06:07;;;;;;;3.20;1.77;;;;;;;;;;5058212;28;20235;-73
2022/07/19 10:08:37;;;;;;;3.47;2.00;;;;;;;;;;5056418;28;20207;-73
2022/07/19 10:11:06;;;;;;;2.67;1.92;;;;;;;;;;5061103;28;20219;-73
2022/07/19 10:13:35;;;;;;;5.88;2.10;;;;;;;;;;5076453;28;20635;-73
2022/07/19 10:16:05;;;;;;;3.03;2.05;;;;;;;;;;5064111;28;20230;-75
2022/07/19 10:18:39;;;;;;;2.92;1.90;;;;;;;;;;5060240;28;20203;-74
2022/07/19 10:21:08;;;;;;;2.13;1.77;;;;;;;;;;5061216;28;20195;-73
2022/07/19 10:23:38;;;;;;;2.33;1.65;;;;;;;;;;5055388;28;20207;-73
2022/07/19 10:26:06;;;;;;;2.00;1.70;;;;;;;;;;5060847;28;20242;-73
2022/07/19 10:28:35;;;;;;;3.92;1.70;;;;;;;;;;5060173;28;20213;-73
2022/07/19 10:31:27;;;;;;;2.67;2.00;;;;;;;;;;5060687;28;20980;-73
2022/07/19 10:34:00;;;;;;;2.15;1.90;;;;;;;;;;5075536;28;20202;-73
2022/07/19 10:36:35;;;;;;;2.47;1.80;;;;;;;;;;5062849;28;20230;-73
2022/07/19 10:39:23;;;;;;;4.05;1.80;;;;;;;;;;5066157;28;20234;-74
2022/07/19 10:42:08;;;;;;;3.55;1.80;;;;;;;;;;5064367;28;20209;-71
2022/07/19 10:44:37;;;;;;;3.75;1.70;;;;;;;;;;5067477;28;20547;-72
2022/07/19 10:47:05;;;;;;;3.38;1.70;;;;;;;;;;5055849;28;20223;-73
2022/07/19 10:49:43;;;;;;;2.60;1.70;;;;;;;;;;5055067;28;20198;-74
2022/07/19 10:52:33;;;;;;;1.80;1.70;;;;;;;;;;5054103;28;20195;-74
2022/07/19 10:55:22;;;;;;;3.17;1.85;;;;;;;;;;5058667;28;20202;-73
2022/07/19 10:57:53;;;;;;;3.63;1.70;;;;;;;;;;5047790;28;20223;-72
2022/07/19 11:00:23;;;;;;;3.50;1.70;;;;;;;;;;5053937;28;20211;-74
2022/07/19 11:02:52;;;;;;;2.75;1.80;;;;;;;;;;5051347;28;20203;-74
2022/07/19 11:05:24;;;;;;;2.08;1.88;;;;;;;;;;5050840;28;20258;-72
2022/07/19 11:07:53;;;;;;;3.22;1.75;;;;;;;;;;5054825;28;20214;-72
2022/07/19 11:10:25;;;;;;;3.72;1.92;;;;;;;;;;5059146;28;20263;-73
2022/07/19 11:12:54;;;;;;;2.72;1.70;;;;;;;;;;5054294;28;20234;-74
2022/07/19 11:15:23;;;;;;;4.43;1.92;;;;;;;;;;5055452;28;20671;-73
2022/07/19 11:17:52;;;;;;;4.32;1.77;;;;;;;;;;5068603;28;20214;-73
2022/07/19 11:20:23;;;;;;;3.03;1.60;;;;;;;;;;5060803;28;20558;-73
2022/07/19 11:22:52;;;;;;;4.53;2.00;;;;;;;;;;5050348;28;20214;-74
2022/07/19 11:25:25;;;;;;;4.20;1.77;;;;;;;;;;5059436;28;20228;-73
2022/07/19 11:27:55;;;;;;;2.55;2.10;;;;;;;;;;5053633;28;20221;-74
2022/07/19 11:30:25;;;;;;;4.20;1.70;;;;;;;;;;5050135;28;20306;-74
2022/07/19 11:32:54;;;;;;;1.30;1.20;;;;;;;;;;5050167;28;20206;-73
2022/07/19 11:35:23;;;;;;;2.45;1.60;;;;;;;;;;5050430;28;20206;-73
2022/07/19 11:37:54;;;;;;;1.80;1.65;;;;;;;;;;5054108;28;20258;-73
2022/07/19 11:40:23;;;;;;;2.13;1.50;;;;;;;;;;5054643;28;20731;-73
2022/07/19 11:42:52;;;;;;;1.60;1.38;;;;;;;;;;5053342;28;20208;-73
2022/07/19 11:45:46;;;;;;;2.28;1.00;;;;;;;;;;5057183;28;20253;-74
2022/07/19 11:48:24;;;;;;;1.30;1.15;;;;;;;;;;5066022;28;20245;-73
2022/07/19 11:51:03;;;;;;;2.08;1.30;;;;;;;;;;5059635;28;20589;-73
2022/07/19 11:53:32;;;;;;;1.90;1.10;;;;;;;;;;5066260;28;20205;-74
2022/07/19 11:56:01;;;;;;;2.55;1.10;;;;;;;;;;5058478;28;20229;-73
2022/07/19 11:58:29;;;;;;;1.45;1.15;;;;;;;;;;5054158;28;20199;-73
2022/07/19 12:01:09;;;;;;;2.08;1.40;;;;;;;;;;5057885;28;20237;-73
2022/07/19 12:03:39;;;;;;;1.40;1.30;;;;;;;;;;5049044;28;20202;-73
2022/07/19 12:06:08;;;;;;;2.90;1.13;;;;;;;;;;5057176;28;20719;-73
2022/07/19 12:08:38;;;;;;;1.80;1.30;;;;;;;;;;5034505;28;20203;-74
2022/07/19 12:11:17;;;;;;;2.97;1.30;;;;;;;;;;5055971;28;20226;-74
2022/07/19 12:13:45;;;;;;;4.13;1.33;;;;;;;;;;5048788;28;20275;-74
2022/07/19 12:16:19;;;;;;;2.50;1.30;;;;;;;;;;5047809;28;20369;-73
2022/07/19 12:18:52;;;;;;;2.78;1.40;;;;;;;;;;5036470;28;20203;-73
2022/07/19 12:21:40;;;;;;;2.58;1.70;;;;;;;;;;5054170;28;20563;-73
2022/07/19 12:24:20;;;;;;;3.20;1.55;;;;;;;;;;5053024;28;20199;-73
2022/07/19 12:26:57;;;;;;;3.15;1.80;;;;;;;;;;5051541;28;20590;-73
2022/07/19 12:29:26;;;;;;;2.70;1.65;;;;;;;;;;5054611;28;20252;-73
2022/07/19 12:31:57;;;;;;;2.33;1.70;;;;;;;;;;5059279;28;20221;-74
2022/07/19 12:34:26;;;;;;;2.47;1.80;;;;;;;;;;5070619;28;20652;-73
2022/07/19 12:36:54;;;;;;;3.17;1.60;;;;;;;;;;5063811;28;20229;-73
2022/07/19 12:39:24;;;;;;;4.45;1.85;;;;;;;;;;5071917;28;20610;-73
2022/07/19 12:41:54;;;;;;;3.15;1.95;;;;;;;;;;5057974;28;20202;-74
2022/07/19 12:44:23;;;;;;;3.65;1.85;;;;;;;;;;5066620;28;20202;-73
2022/07/19 12:46:52;;;;;;;3.75;2.45;;;;;;;;;;5059025;28;20233;-73
2022/07/19 12:49:45;;;;;;;5.55;2.30;;;;;;;;;;5056700;28;20660;-73
2022/07/19 12:52:14;;;;;;;4.45;1.95;;;;;;;;;;5066109;28;20230;-73
2022/07/19 12:54:43;;;;;;;3.97;2.00;;;;;;;;;;5064353;28;20282;-73
2022/07/19 12:57:11;;;;;;;3.03;1.92;;;;;;;;;;5046528;28;20226;-73
2022/07/19 12:59:40;;;;;;;3.50;1.70;;;;;;;;;;5054356;28;20256;-73
2022/07/19 13:02:10;;;;;;;2.88;2.08;;;;;;;;;;5063966;28;20221;-73
2022/07/19 13:04:39;;;;;;;3.63;2.50;;;;;;;;;;4717445;28;10000398;-73
2022/07/19 13:07:09;;;;;;;7.18;2.63;;;;;;;;;;5051190;28;20260;-74
2022/07/19 13:09:39;;;;;;;2.72;2.00;;;;;;;;;;5044134;28;20211;-74
2022/07/19 13:12:08;;;;;;;2.55;2.05;;;;;;;;;;5056921;28;20231;-74
2022/07/19 13:14:37;;;;;;;3.92;2.10;;;;;;;;;;5050085;28;20273;-74
2022/07/19 13:17:10;;;;;;;4.53;2.03;;;;;;;;;;5060746;28;20752;-74
2022/07/19 13:19:39;;;;;;;6.25;2.50;;;;;;;;;;5057566;28;20287;-75
2022/07/19 13:22:09;;;;;;;3.85;2.10;;;;;;;;;;5049998;28;20206;-74
2022/07/19 13:24:37;;;;;;;3.80;2.30;;;;;;;;;;5052929;28;20256;-74
2022/07/19 13:27:26;;;;;;;2.78;2.03;;;;;;;;;;5062335;28;20262;-74
2022/07/19 13:29:54;;;;;;;2.35;1.98;;;;;;;;;;5051374;28;20274;-74
2022/07/19 13:32:23;;;;;;;4.75;2.30;;;;;;;;;;5060505;28;20222;-74
2022/07/19 13:34:52;;;;;;;2.15;1.90;;;;;;;;;;5052647;28;20265;-74
2022/07/19 13:37:22;;;;;;;4.63;2.00;;;;;;;;;;5062867;28;20226;-74
2022/07/19 13:39:50;;;;;;;1.77;1.67;;;;;;;;;;5056752;28;20761;-73
2022/07/19 13:42:19;;;;;;;4.40;2.00;;;;;;;;;;5054082;28;20284;-74
2022/07/19 13:44:47;;;;;;;4.82;2.38;;;;;;;;;;5055438;28;20210;-74
2022/07/19 13:47:16;;;;;;;3.35;1.95;;;;;;;;;;5064431;28;20233;-74
2022/07/19 13:49:45;;;;;;;3.05;1.90;;;;;;;;;;5043506;28;20202;-74
2022/07/19 13:52:14;;;;;;;4.40;2.00;;;;;;;;;;5045998;28;20219;-74
2022/07/19 13:54:58;;;;;;;3.78;2.17;;;;;;;;;;5042454;28;20202;-74
2022/07/19 13:57:41;;;;;;;4.25;2.10;;;;;;;;;;5046023;28;20223;-74
2022/07/19 14:00:12;;;;;;;2.45;2.00;;;;;;;;;;5049637;28;20198;-75
2022/07/19 14:02:41;;;;;;;3.60;2.20;;;;;;;;;;5051560;28;20199;-74
2022/07/19 14:05:10;;;;;;;4.22;1.88;;;;;;;;;;5051091;28;20218;-74
2022/07/19 14:07:39;;;;;;;3.08;2.03;;;;;;;;;;5046430;28;20226;-74
2022/07/19 14:10:08;;;;;;;3.60;2.40;;;;;;;;;;5056862;28;20205;-73
2022/07/19 14:12:37;;;;;;;4.15;2.00;;;;;;;;;;5049948;28;20311;-74
2022/07/19 14:15:06;;;;;;;3.38;2.30;;;;;;;;;;5050851;28;20267;-74
2022/07/19 14:17:36;;;;;;;5.25;2.20;;;;;;;;;;5040389;28;20634;-73
2022/07/19 14:20:05;;;;;;;4.32;2.08;;;;;;;;;;5055190;28;20734;-74
2022/07/19 14:22:33;;;;;;;3.63;2.13;;;;;;;;;;5053247;28;20195;-73
2022/07/19 14:25:02;;;;;;;4.15;2.10;;;;;;;;;;5054584;28;20207;-75
2022/07/19 14:27:30;;;;;;;4.30;2.13;;;;;;;;;;5047312;28;20219;-74
2022/07/19 14:30:00;;;;;;;4.22;2.10;;;;;;;;;;5050982;28;20198;-73
2022/07/19 14:32:29;;;;;;;3.20;2.10;;;;;;;;;;5054007;28;20226;-73
2022/07/19 14:35:04;;;;;;;3.65;2.03;;;;;;;;;;5056113;28;20198;-73
2022/07/19 14:37:35;;;;;;;2.50;2.00;;;;;;;;;;5053489;28;20714;-74
2022/07/19 14:40:04;;;;;;;2.22;2.00;;;;;;;;;;5060147;28;20190;-76
2022/07/19 14:42:36;;;;;;;2.20;2.00;;;;;;;;;;5073985;28;20611;-76
2022/07/19 14:45:13;;;;;;;5.57;2.05;;;;;;;;;;5074988;28;20273;-76
2022/07/19 14:47:43;;;;;;;3.83;2.10;;;;;;;;;;5074777;28;20222;-76
2022/07/19 14:50:23;;;;;;;4.40;2.08;;;;;;;;;;5074844;28;20638;-76
2022/07/19 14:52:51;;;;;;;2.63;2.00;;;;;;;;;;5073947;28;20222;-76
2022/07/19 14:55:20;;;;;;;3.10;2.05;;;;;;;;;;5075717;28;20205;-77
2022/07/19 14:57:48;;;;;;;4.70;2.10;;;;;;;;;;5075461;28;20595;-76
2022/07/19 15:00:17;;;;;;;2.17;2.00;;;;;;;;;;5075668;28;20205;-77
2022/07/19 15:02:46;;;;;;;2.30;2.10;;;;;;;;;;5075727;28;20190;-76